createdAt,value
2017-09-05T00:00:18.700Z,100969.30
2017-09-05T00:02:45.855Z,100971.44
2017-09-05T00:05:13.757Z,100968.41
2017-09-05T00:07:43.682Z,100980.59
2017-09-05T00:10:11.034Z,100980.18
2017-09-05T00:15:49.232Z,100971.91
2017-09-05T00:18:18.785Z,100978.41
2017-09-05T00:20:46.915Z,100977.56
2017-09-05T00:23:17.240Z,100977.14
2017-09-05T00:25:44.620Z,100970.66
2017-09-05T00:28:12.808Z,100970.19
2017-09-05T00:30:39.986Z,100973.22
2017-09-05T00:33:07.166Z,100967.57
2017-09-05T00:35:34.310Z,100971.91
2017-09-05T00:38:01.469Z,100973.69
2017-09-05T00:40:28.615Z,100977.98
2017-09-05T00:42:55.791Z,100969.30
2017-09-05T00:45:23.001Z,100975.42
2017-09-05T00:47:50.924Z,100975.89
2017-09-05T00:50:18.061Z,100969.77
2017-09-05T00:52:45.220Z,100976.67
2017-09-05T00:55:12.361Z,100978.45
2017-09-05T00:57:39.520Z,100978.03
2017-09-05T01:00:06.664Z,100981.48
2017-09-05T01:02:33.809Z,100983.69
2017-09-05T01:05:00.967Z,100982.37
2017-09-05T01:07:28.913Z,100983.27
2017-09-05T01:09:56.079Z,100979.34
2017-09-05T01:12:23.243Z,100984.16
2017-09-05T01:14:50.385Z,100979.34
2017-09-05T01:17:17.521Z,100978.92
2017-09-05T01:19:44.683Z,100976.30
2017-09-05T01:22:11.821Z,100980.23
2017-09-05T01:24:38.962Z,100979.77
2017-09-05T01:27:06.096Z,100980.23
2017-09-05T01:29:33.237Z,100978.92
2017-09-05T01:32:01.159Z,100976.73
2017-09-05T01:34:28.307Z,100975.84
2017-09-05T01:36:55.444Z,100975.42
2017-09-05T01:39:22.588Z,100974.58
2017-09-05T01:41:49.724Z,100972.80
2017-09-05T01:44:16.889Z,100973.22
2017-09-05T01:46:44.034Z,100971.49
2017-09-05T01:49:11.184Z,100971.97
2017-09-05T01:51:38.351Z,100968.05
2017-09-05T01:54:05.497Z,100968.05
2017-09-05T01:56:32.652Z,100967.16
2017-09-05T01:58:59.805Z,100964.11
2017-09-05T02:01:26.963Z,100965.89
2017-09-05T02:03:54.874Z,100963.23
2017-09-05T02:06:22.799Z,100956.27
2017-09-05T02:08:49.942Z,100954.48
2017-09-05T02:11:17.098Z,100957.11
2017-09-05T02:13:44.245Z,100942.34
2017-09-05T02:16:11.550Z,100949.31
2017-09-05T02:18:38.716Z,100944.02
2017-09-05T02:21:05.876Z,100930.11
2017-09-05T02:23:33.014Z,100927.48
2017-09-05T02:26:00.161Z,100916.61
2017-09-05T02:28:27.322Z,100912.27
2017-09-05T02:30:54.460Z,100923.14
2017-09-05T02:33:21.622Z,100925.34
2017-09-05T02:35:48.780Z,100924.45
2017-09-05T02:38:15.926Z,100924.03
2017-09-05T02:40:43.070Z,100920.11
2017-09-05T02:43:10.230Z,100922.67
2017-09-05T02:45:37.374Z,100918.75
2017-09-05T02:48:04.531Z,100921.84
2017-09-05T02:50:31.670Z,100910.53
2017-09-05T02:52:58.824Z,100915.72
2017-09-05T02:55:25.965Z,100915.30
2017-09-05T02:57:53.121Z,100916.61
2017-09-05T03:00:20.261Z,100917.44
2017-09-05T03:02:47.454Z,100912.27
2017-09-05T03:05:14.593Z,100910.06
2017-09-05T03:07:41.751Z,100913.52
2017-09-05T03:10:08.894Z,100913.57
2017-09-05T03:12:36.028Z,100911.37
2017-09-05T03:15:03.170Z,100913.09
2017-09-05T03:17:30.327Z,100916.61
2017-09-05T03:19:57.470Z,100908.34
2017-09-05T03:22:24.623Z,100915.30
2017-09-05T03:24:51.779Z,100918.33
2017-09-05T03:27:18.924Z,100916.61
2017-09-05T03:29:46.079Z,100910.53
2017-09-05T03:32:13.223Z,100906.61
2017-09-05T03:34:40.384Z,100912.27
2017-09-05T03:37:07.539Z,100914.41
2017-09-05T03:39:34.687Z,100911.80
2017-09-05T03:42:01.833Z,100914.87
2017-09-05T03:44:28.986Z,100914.87
2017-09-05T03:46:56.145Z,100910.06
2017-09-05T03:49:23.285Z,100913.98
2017-09-05T03:51:50.424Z,100915.30
2017-09-05T03:54:17.570Z,100915.35
2017-09-05T03:56:44.726Z,100910.95
2017-09-05T03:59:11.870Z,100913.57
2017-09-05T04:01:39.009Z,100919.22
2017-09-05T04:04:06.163Z,100917.02
2017-09-05T04:06:33.313Z,100915.30
2017-09-05T04:09:01.222Z,100916.19
2017-09-05T04:11:28.362Z,100913.98
2017-09-05T04:13:55.524Z,100913.57
2017-09-05T04:16:22.688Z,100917.97
2017-09-05T04:18:49.844Z,100921.00
2017-09-05T04:21:17.004Z,100919.69
2017-09-05T04:23:44.154Z,100925.81
2017-09-05T04:26:11.308Z,100924.03
2017-09-05T04:28:38.446Z,100928.37
2017-09-05T04:31:05.603Z,100924.03
2017-09-05T04:33:32.746Z,100922.31
2017-09-05T04:35:59.901Z,100931.88
2017-09-05T04:38:27.055Z,100930.99
2017-09-05T04:40:54.210Z,100929.32
2017-09-05T04:43:21.357Z,100927.17
2017-09-05T04:45:48.497Z,100923.20
2017-09-05T04:48:15.651Z,100919.69
2017-09-05T04:50:42.816Z,100915.35
2017-09-05T04:53:09.972Z,100912.31
2017-09-05T04:55:37.114Z,100912.73
2017-09-05T04:58:04.248Z,100915.77
2017-09-05T05:00:31.390Z,100913.67
2017-09-05T05:02:58.535Z,100912.73
2017-09-05T05:05:25.700Z,100920.16
2017-09-05T05:07:52.859Z,100920.16
2017-09-05T05:10:20.001Z,100917.97
2017-09-05T05:12:47.141Z,100925.40
2017-09-05T05:15:14.280Z,100927.12
2017-09-05T05:17:41.429Z,100934.55
2017-09-05T05:20:08.570Z,100930.16
2017-09-05T05:22:35.709Z,100925.81
2017-09-05T05:25:02.868Z,100927.59
2017-09-05T05:27:30.032Z,100930.16
2017-09-05T05:29:57.187Z,100937.12
2017-09-05T05:32:24.348Z,100928.02
2017-09-05T05:34:51.510Z,100936.28
2017-09-05T05:37:18.683Z,100941.09
2017-09-05T05:39:45.826Z,100936.70
2017-09-05T05:42:12.984Z,100932.77
2017-09-05T05:44:40.130Z,100935.80
2017-09-05T05:47:07.291Z,100928.43
2017-09-05T05:49:34.442Z,100924.98
2017-09-05T05:52:01.582Z,100921.89
2017-09-05T05:54:28.754Z,100930.21
2017-09-05T05:56:55.902Z,100929.32
2017-09-05T05:59:23.041Z,100921.89
2017-09-05T06:01:50.198Z,100920.58
2017-09-05T06:04:17.360Z,100928.02
2017-09-05T06:06:44.500Z,100928.91
2017-09-05T06:09:11.637Z,100920.16
2017-09-05T06:11:38.782Z,100928.02
2017-09-05T06:14:05.929Z,100924.98
2017-09-05T06:16:33.083Z,100923.20
2017-09-05T06:19:00.236Z,100920.58
2017-09-05T06:21:27.381Z,100918.86
2017-09-05T06:23:54.522Z,100917.12
2017-09-05T06:26:21.666Z,100921.00
2017-09-05T06:28:48.834Z,100930.58
2017-09-05T06:31:15.977Z,100933.24
2017-09-05T06:33:43.140Z,100924.98
2017-09-05T06:36:10.287Z,100921.47
2017-09-05T06:38:37.422Z,100922.31
2017-09-05T06:41:04.584Z,100918.38
2017-09-05T06:43:31.740Z,100916.23
2017-09-05T06:45:58.900Z,100922.31
2017-09-05T06:48:26.045Z,100921.47
2017-09-05T06:50:53.190Z,100920.58
2017-09-05T06:53:20.338Z,100924.56
2017-09-05T06:55:47.495Z,100927.59
2017-09-05T06:58:14.632Z,100922.36
2017-09-05T07:00:41.773Z,100923.20
2017-09-05T07:03:08.944Z,100924.09
2017-09-05T07:05:36.099Z,100921.05
2017-09-05T07:08:03.246Z,100922.31
2017-09-05T07:10:30.391Z,100917.12
2017-09-05T07:12:57.538Z,100917.55
2017-09-05T07:15:24.700Z,100917.12
2017-09-05T07:17:51.842Z,100918.02
2017-09-05T07:20:19.019Z,100923.67
2017-09-05T07:22:46.157Z,100915.82
2017-09-05T07:25:13.297Z,100919.33
2017-09-05T07:27:40.450Z,100921.47
2017-09-05T07:30:07.608Z,100919.75
2017-09-05T07:32:34.768Z,100912.78
2017-09-05T07:35:01.905Z,100918.44
2017-09-05T07:37:29.068Z,100913.20
2017-09-05T07:39:56.210Z,100917.55
2017-09-05T07:42:23.372Z,100916.71
2017-09-05T07:44:50.513Z,100918.02
2017-09-05T07:47:17.665Z,100918.44
2017-09-05T07:49:44.846Z,100919.75
2017-09-05T07:52:11.989Z,100918.91
2017-09-05T07:54:39.148Z,100914.98
2017-09-05T07:57:06.302Z,100912.37
2017-09-05T07:59:33.476Z,100908.03
2017-09-05T08:02:01.399Z,100911.00
2017-09-05T08:04:28.562Z,100905.41
2017-09-05T08:06:55.733Z,100906.24
2017-09-05T08:09:22.878Z,100902.80
2017-09-05T08:11:50.018Z,100898.87
2017-09-05T08:14:17.175Z,100902.74
2017-09-05T08:16:44.329Z,100900.59
2017-09-05T08:19:11.476Z,100897.98
2017-09-05T08:21:38.617Z,100903.62
2017-09-05T08:24:05.774Z,100908.86
2017-09-05T08:26:32.920Z,100901.02
2017-09-05T08:29:00.080Z,100900.17
2017-09-05T08:31:27.222Z,100906.66
2017-09-05T08:33:54.380Z,100904.09
2017-09-05T08:36:21.525Z,100899.70
2017-09-05T08:38:48.670Z,100900.59
2017-09-05T08:41:15.821Z,100900.68
2017-09-05T08:43:42.965Z,100900.17
2017-09-05T08:46:10.124Z,100897.51
2017-09-05T08:48:37.265Z,100897.98
2017-09-05T08:51:04.406Z,100907.55
2017-09-05T08:53:31.568Z,100901.48
2017-09-05T08:55:58.717Z,100906.24
2017-09-05T08:58:25.853Z,100903.62
2017-09-05T09:00:53.002Z,100893.25
2017-09-05T09:03:20.143Z,100894.05
2017-09-05T09:05:47.304Z,100897.56
2017-09-05T09:08:14.465Z,100893.16
2017-09-05T09:10:41.636Z,100892.75
2017-09-05T09:13:08.787Z,100892.33
2017-09-05T09:15:35.952Z,100893.25
2017-09-05T09:18:03.094Z,100890.13
2017-09-05T09:20:30.246Z,100879.25
2017-09-05T09:22:57.409Z,100886.62
2017-09-05T09:25:24.550Z,100886.70
2017-09-05T09:27:51.715Z,100880.17
2017-09-05T09:30:18.866Z,100882.78
2017-09-05T09:32:46.012Z,100884.56
2017-09-05T09:35:13.158Z,100880.98
2017-09-05T09:37:40.316Z,100888.02
2017-09-05T09:40:07.464Z,100893.25
2017-09-05T09:42:34.609Z,100892.33
2017-09-05T09:45:01.759Z,100885.88
2017-09-05T09:47:28.920Z,100884.90
2017-09-05T09:49:56.075Z,100882.78
2017-09-05T09:52:23.231Z,100885.41
2017-09-05T09:54:50.369Z,100875.33
2017-09-05T09:57:17.529Z,100874.02
2017-09-05T09:59:44.678Z,100870.17
2017-09-05T10:02:11.901Z,100863.97
2017-09-05T10:04:39.040Z,100862.24
2017-09-05T10:07:06.178Z,100863.55
2017-09-05T10:09:33.326Z,100860.94
2017-09-05T10:12:00.489Z,100859.72
2017-09-05T10:14:28.412Z,100862.75
2017-09-05T10:16:55.739Z,100855.31
2017-09-05T10:19:22.881Z,100855.31
2017-09-05T10:21:50.030Z,100852.70
2017-09-05T10:24:17.169Z,100845.33
2017-09-05T10:26:44.314Z,100842.70
2017-09-05T10:29:11.471Z,100847.05
2017-09-05T10:31:38.628Z,100847.94
2017-09-05T10:34:05.796Z,100845.66
2017-09-05T10:36:32.946Z,100843.55
2017-09-05T10:39:00.107Z,100837.00
2017-09-05T10:41:27.269Z,100837.39
2017-09-05T10:43:54.401Z,100845.33
2017-09-05T10:46:21.546Z,100842.23
2017-09-05T10:48:48.697Z,100840.09
2017-09-05T10:51:15.851Z,100840.52
2017-09-05T10:53:43.007Z,100837.89
2017-09-05T10:56:10.158Z,100840.98
2017-09-05T10:58:37.310Z,100834.86
2017-09-05T11:01:04.449Z,100836.08
2017-09-05T11:03:31.590Z,100836.08
2017-09-05T11:05:58.752Z,100835.28
2017-09-05T11:08:25.912Z,100835.70
2017-09-05T11:10:53.067Z,100835.75
2017-09-05T11:13:20.217Z,100830.47
2017-09-05T11:15:47.380Z,100835.20
2017-09-05T11:18:14.542Z,100838.31
2017-09-05T11:20:41.689Z,100831.77
2017-09-05T11:23:08.844Z,100833.47
2017-09-05T11:25:35.994Z,100831.77
2017-09-05T11:28:03.146Z,100829.55
2017-09-05T11:30:30.302Z,100833.97
2017-09-05T11:32:57.459Z,100833.08
2017-09-05T11:35:24.603Z,100831.77
2017-09-05T11:37:51.760Z,100830.05
2017-09-05T11:40:19.687Z,100834.77
2017-09-05T11:42:46.829Z,100830.47
2017-09-05T11:45:13.987Z,100823.51
2017-09-05T11:47:41.133Z,100823.92
2017-09-05T11:50:08.283Z,100826.13
2017-09-05T11:52:35.453Z,100814.83
2017-09-05T11:55:02.617Z,100818.70
2017-09-05T11:57:29.803Z,100806.08
2017-09-05T11:59:56.946Z,100818.27
2017-09-05T12:02:24.109Z,100819.16
2017-09-05T12:04:51.254Z,100816.55
2017-09-05T12:07:18.415Z,100817.86
2017-09-05T12:09:45.553Z,100817.86
2017-09-05T12:12:12.712Z,100813.52
2017-09-05T12:14:39.854Z,100814.35
2017-09-05T12:17:07.005Z,100813.05
2017-09-05T12:19:34.164Z,100819.58
2017-09-05T12:22:01.301Z,100810.01
2017-09-05T12:24:28.442Z,100811.31
2017-09-05T12:26:55.604Z,100813.05
2017-09-05T12:29:22.768Z,100817.86
2017-09-05T12:31:49.932Z,100818.70
2017-09-05T12:34:17.069Z,100818.70
2017-09-05T12:36:44.227Z,100809.03
2017-09-05T12:39:11.378Z,100807.30
2017-09-05T12:41:38.525Z,100804.30
2017-09-05T12:44:05.662Z,100803.47
2017-09-05T12:46:32.843Z,100805.66
2017-09-05T12:49:00.005Z,100806.97
2017-09-05T12:51:27.164Z,100807.39
2017-09-05T12:53:54.324Z,100809.12
2017-09-05T12:56:21.484Z,100805.19
2017-09-05T12:58:48.626Z,100800.44
2017-09-05T13:01:15.764Z,100810.84
2017-09-05T13:03:42.924Z,100805.19
2017-09-05T13:06:10.065Z,100800.91
2017-09-05T13:08:37.234Z,100805.25
2017-09-05T13:11:04.386Z,100799.18
2017-09-05T13:13:31.538Z,100802.16
2017-09-05T13:15:58.706Z,100803.00
2017-09-05T13:18:25.845Z,100799.97
2017-09-05T13:20:53.009Z,100793.00
2017-09-05T13:23:20.159Z,100791.28
2017-09-05T13:25:47.304Z,100789.08
2017-09-05T13:28:14.464Z,100785.63
2017-09-05T13:30:41.619Z,100783.84
2017-09-05T13:33:08.780Z,100778.62
2017-09-05T13:35:35.944Z,100781.65
2017-09-05T13:38:03.087Z,100778.48
2017-09-05T13:40:30.231Z,100775.39
2017-09-05T13:42:57.377Z,100774.50
2017-09-05T13:45:24.548Z,100770.58
2017-09-05T13:47:51.703Z,100768.84
2017-09-05T13:50:18.842Z,100774.08
2017-09-05T13:52:45.990Z,100767.54
2017-09-05T13:55:13.129Z,100766.23
2017-09-05T13:57:40.283Z,100767.54
2017-09-05T14:00:07.444Z,100771.52
2017-09-05T14:02:34.603Z,100765.81
2017-09-05T14:05:01.752Z,100768.43
2017-09-05T14:07:28.913Z,100771.94
2017-09-05T14:09:56.070Z,100774.97
2017-09-05T14:12:23.217Z,100770.62
2017-09-05T14:14:50.357Z,100773.66
2017-09-05T14:17:19.188Z,100778.06
2017-09-05T14:19:46.555Z,100774.97
2017-09-05T14:22:13.720Z,100774.50
2017-09-05T14:24:40.864Z,100773.13
2017-09-05T14:27:08.013Z,100767.48
2017-09-05T14:29:35.173Z,100762.73
2017-09-05T14:32:02.319Z,100766.23
2017-09-05T14:34:29.462Z,100755.77
2017-09-05T14:36:56.604Z,100760.58
2017-09-05T14:39:23.765Z,100748.39
2017-09-05T14:41:50.909Z,100741.85
2017-09-05T14:44:18.065Z,100738.34
2017-09-05T14:46:45.221Z,100739.23
2017-09-05T14:49:12.382Z,100738.34
2017-09-05T14:51:39.522Z,100736.62
2017-09-05T14:54:06.672Z,100731.39
2017-09-05T14:56:33.814Z,100729.61
2017-09-05T14:59:00.966Z,100724.80
2017-09-05T15:01:28.129Z,100720.87
2017-09-05T15:03:55.270Z,100719.98
2017-09-05T15:06:22.428Z,100721.28
2017-09-05T15:08:49.574Z,100716.95
2017-09-05T15:11:16.726Z,100716.47
2017-09-05T15:13:43.865Z,100713.86
2017-09-05T15:16:11.029Z,100707.73
2017-09-05T15:18:38.178Z,100704.70
2017-09-05T15:21:05.336Z,100707.31
2017-09-05T15:23:32.491Z,100708.16
2017-09-05T15:25:59.647Z,100701.20
2017-09-05T15:28:26.829Z,100704.23
2017-09-05T15:30:54.042Z,100697.27
2017-09-05T15:33:21.213Z,100691.56
2017-09-05T15:35:49.139Z,100693.81
2017-09-05T15:38:16.277Z,100688.17
2017-09-05T15:40:43.486Z,100694.23
2017-09-05T15:43:10.643Z,100692.04
2017-09-05T15:45:37.803Z,100682.47
2017-09-05T15:48:05.716Z,100692.09
2017-09-05T15:50:32.854Z,100696.44
2017-09-05T15:53:00.015Z,100690.73
2017-09-05T15:55:27.368Z,100684.19
2017-09-05T15:57:54.528Z,100686.80
2017-09-05T16:00:21.696Z,100686.80
2017-09-05T16:02:48.847Z,100689.84
2017-09-05T16:05:15.989Z,100684.61
2017-09-05T16:07:43.125Z,100683.30
2017-09-05T16:10:10.280Z,100681.99
2017-09-05T16:12:37.440Z,100679.84
2017-09-05T16:15:04.600Z,100677.17
2017-09-05T16:17:31.738Z,100680.21
2017-09-05T16:19:58.881Z,100678.06
2017-09-05T16:22:26.045Z,100672.83
2017-09-05T16:24:53.189Z,100666.77
2017-09-05T16:27:20.343Z,100671.53
2017-09-05T16:29:47.485Z,100670.69
2017-09-05T16:32:14.651Z,100667.13
2017-09-05T16:34:41.816Z,100669.75
2017-09-05T16:37:08.983Z,100664.52
2017-09-05T16:39:36.138Z,100665.34
2017-09-05T16:42:03.290Z,100661.89
2017-09-05T16:44:30.433Z,100664.52
2017-09-05T16:46:57.581Z,100664.52
2017-09-05T16:49:24.725Z,100661.48
2017-09-05T16:51:51.892Z,100661.95
2017-09-05T16:54:19.060Z,100658.03
2017-09-05T16:56:46.223Z,100658.03
2017-09-05T16:59:13.383Z,100655.83
2017-09-05T17:01:40.522Z,100661.53
2017-09-05T17:04:07.667Z,100659.34
2017-09-05T17:06:34.858Z,100655.41
2017-09-05T17:09:02.017Z,100657.14
2017-09-05T17:11:29.184Z,100655.83
2017-09-05T17:13:56.329Z,100653.22
2017-09-05T17:16:23.489Z,100658.09
2017-09-05T17:18:50.641Z,100660.28
2017-09-05T17:21:17.805Z,100655.05
2017-09-05T17:23:45.720Z,100658.98
2017-09-05T17:26:12.880Z,100655.47
2017-09-05T17:28:40.266Z,100651.55
2017-09-05T17:31:07.405Z,100651.13
2017-09-05T17:33:34.874Z,100649.81
2017-09-05T17:36:02.033Z,100645.00
2017-09-05T17:38:29.186Z,100648.52
2017-09-05T17:40:56.371Z,100644.17
2017-09-05T17:43:23.563Z,100643.28
2017-09-05T17:45:50.728Z,100643.28
2017-09-05T17:48:17.901Z,100647.20
2017-09-05T17:50:45.046Z,100648.52
2017-09-05T17:53:12.194Z,100647.20
2017-09-05T17:55:39.359Z,100645.89
2017-09-05T17:58:06.533Z,100654.63
2017-09-05T18:00:34.150Z,100655.94
2017-09-05T18:03:01.685Z,100659.45
2017-09-05T18:05:28.858Z,100664.20
2017-09-05T18:07:56.203Z,100669.91
2017-09-05T18:10:23.348Z,100667.30
2017-09-05T18:12:50.589Z,100667.71
2017-09-05T18:15:19.091Z,100676.39
2017-09-05T18:17:46.704Z,100671.22
2017-09-05T18:20:15.753Z,100672.05
2017-09-05T18:22:42.964Z,100675.56
2017-09-05T18:25:10.140Z,100679.95
2017-09-05T18:27:38.232Z,100678.65
2017-09-05T18:30:06.403Z,100683.88
2017-09-05T18:32:34.372Z,100681.27
2017-09-05T18:35:02.137Z,100686.50
2017-09-05T18:37:29.324Z,100679.12
2017-09-05T18:39:56.502Z,100683.88
2017-09-05T18:42:23.940Z,100687.39
2017-09-05T18:44:51.761Z,100689.53
2017-09-05T18:47:18.957Z,100692.20
2017-09-05T18:49:47.183Z,100686.50
2017-09-05T18:52:15.542Z,100678.23
2017-09-05T18:54:44.343Z,100681.68
2017-09-05T18:57:12.918Z,100679.54
2017-09-05T18:59:41.380Z,100685.19
2017-09-05T19:02:10.351Z,100689.12
2017-09-05T19:04:39.355Z,100688.70
2017-09-05T19:07:07.335Z,100682.99
2017-09-05T19:09:36.099Z,100684.72
2017-09-05T19:12:04.455Z,100683.88
2017-09-05T19:14:33.450Z,100677.81
2017-09-05T19:17:02.217Z,100670.80
2017-09-05T19:19:31.043Z,100675.62
2017-09-05T19:21:59.868Z,100666.05
2017-09-05T19:24:28.159Z,100667.35
2017-09-05T19:26:56.855Z,100669.97
2017-09-05T19:29:25.599Z,100672.20
2017-09-05T19:31:54.347Z,100671.69
2017-09-05T19:34:22.379Z,100670.89
2017-09-05T19:36:50.705Z,100672.58
2017-09-05T19:39:18.858Z,100670.89
2017-09-05T19:41:46.986Z,100671.28
2017-09-05T19:44:15.277Z,100672.20
2017-09-05T19:46:44.522Z,100667.30
2017-09-05T19:49:13.424Z,100667.35
2017-09-05T19:51:41.806Z,100673.00
2017-09-05T19:54:10.616Z,100662.62
2017-09-05T19:56:39.179Z,100659.12
2017-09-05T19:59:07.866Z,100663.84
2017-09-05T20:01:36.571Z,100667.35
2017-09-05T20:04:05.349Z,100666.45
2017-09-05T20:06:34.391Z,100669.97
2017-09-05T20:09:03.010Z,100697.38
2017-09-05T20:11:31.488Z,100695.23
2017-09-05T20:13:59.977Z,100693.51
2017-09-05T20:16:28.832Z,100696.12
2017-09-05T20:18:57.215Z,100693.51
2017-09-05T20:21:25.969Z,100686.08
2017-09-05T20:23:54.807Z,100687.39
2017-09-05T20:26:23.166Z,100693.93
2017-09-05T20:28:51.412Z,100689.59
2017-09-05T20:31:19.968Z,100696.12
2017-09-05T20:33:48.760Z,100690.09
2017-09-05T20:36:17.264Z,100691.81
2017-09-05T20:38:45.491Z,100691.31
2017-09-05T20:41:13.604Z,100695.73
2017-09-05T20:43:40.964Z,100688.28
2017-09-05T20:46:09.077Z,100685.28
2017-09-05T20:48:36.293Z,100683.13
2017-09-05T20:51:03.466Z,100682.72
2017-09-05T20:53:30.608Z,100682.24
2017-09-05T20:55:57.801Z,100680.94
2017-09-05T20:58:25.016Z,100681.83
2017-09-05T21:00:53.223Z,100680.10
2017-09-05T21:03:21.499Z,100676.50
2017-09-05T21:05:49.017Z,100670.95
2017-09-05T21:08:16.473Z,100669.16
2017-09-05T21:10:44.267Z,100673.09
2017-09-05T21:13:11.460Z,100676.59
2017-09-05T21:15:38.610Z,100673.14
2017-09-05T21:18:06.114Z,100673.14
2017-09-05T21:20:33.258Z,100681.41
2017-09-05T21:23:01.183Z,100675.76
2017-09-05T21:25:29.082Z,100678.38
2017-09-05T21:27:56.260Z,100676.59
2017-09-05T21:30:24.403Z,100673.98
2017-09-05T21:32:51.620Z,100679.62
2017-09-05T21:35:18.781Z,100678.80
2017-09-05T21:37:45.933Z,100671.28
2017-09-05T21:40:13.087Z,100672.25
2017-09-05T21:42:40.243Z,100674.81
2017-09-05T21:45:07.992Z,100667.44
2017-09-05T21:47:36.292Z,100670.47
2017-09-05T21:50:03.479Z,100671.36
2017-09-05T21:52:30.614Z,100665.30
2017-09-05T21:54:57.774Z,100669.16
2017-09-05T21:57:24.921Z,100671.78
2017-09-05T21:59:52.071Z,100671.36
2017-09-05T22:02:19.228Z,100666.61
2017-09-05T22:04:46.366Z,100668.66
2017-09-05T22:07:13.501Z,100663.93
2017-09-05T22:09:40.643Z,100665.66
2017-09-05T22:12:07.790Z,100669.97
2017-09-05T22:14:40.358Z,100673.56
2017-09-05T22:17:07.513Z,100670.95
2017-09-05T22:19:40.298Z,100665.72
2017-09-05T22:22:07.456Z,100671.78
2017-09-05T22:27:42.756Z,100667.86
2017-09-05T22:30:09.897Z,100669.97
2017-09-05T22:32:37.055Z,100666.13
2017-09-05T22:35:04.202Z,100664.35
2017-09-05T22:37:31.337Z,100671.78
2017-09-05T22:39:58.465Z,100660.42
2017-09-05T22:42:26.376Z,100659.59
2017-09-05T22:44:53.520Z,100662.20
2017-09-05T22:47:20.653Z,100656.50
2017-09-05T22:49:47.799Z,100667.86
2017-09-05T22:52:14.942Z,100671.28
2017-09-05T22:54:42.352Z,100670.05
2017-09-05T22:57:09.507Z,100670.89
2017-09-05T22:59:36.660Z,100672.67
2017-09-05T23:02:03.802Z,100672.25
2017-09-05T23:04:30.956Z,100671.78
2017-09-05T23:06:58.112Z,100657.86
2017-09-05T23:09:25.273Z,100664.82
2017-09-05T23:11:52.437Z,100661.38
2017-09-05T23:14:19.591Z,100657.45
2017-09-05T23:16:46.730Z,100666.61
2017-09-05T23:19:13.886Z,100664.41
2017-09-05T23:21:41.044Z,100657.86
2017-09-05T23:24:08.203Z,100657.86
2017-09-05T23:26:35.359Z,100650.44
2017-09-05T23:29:02.501Z,100650.85
2017-09-05T23:31:29.655Z,100650.02
2017-09-05T23:33:56.810Z,100644.31
2017-09-05T23:36:23.970Z,100647.73
2017-09-05T23:38:51.101Z,100647.41
2017-09-05T23:41:18.268Z,100641.75
2017-09-05T23:43:45.423Z,100639.97
2017-09-05T23:46:12.584Z,100636.94
2017-09-05T23:48:39.744Z,100637.77
2017-09-05T23:51:06.899Z,100631.70
2017-09-05T23:53:34.458Z,100632.59
2017-09-05T23:56:01.664Z,100630.40
2017-09-05T23:58:28.827Z,100626.48
